logo tempoitalia

Diretta Meteo Gaziantep, Turchialunedì 31 agosto ore 08:20

Mappa
Sereno 26 °C Sereno 24 Ore: T.min 19 T.max 31
Ponente Nord Km/h 14.8 Punto di rugiada: 12 °C Umidità: 41% Visibilità: 10 Km
Il sole sorge alle: 06:00 Il sole tramonta alle: 19:01
31 Agosto 2026 08:20 tempo osservato: Sereno Sereno 26 41 1009 vento: Nord N 14.8
31 Agosto 2026 07:50 tempo osservato: Sereno Sereno 24 53 1009 vento: Nord N/NE 7.4
31 Agosto 2026 07:20 tempo osservato: Sereno Sereno 22 60 1009 vento: Nord N/NE 7.4
31 Agosto 2026 06:50 tempo osservato: Sereno Sereno 21 60 1009 vento: Nord N/NE 7.4
31 Agosto 2026 06:20 tempo osservato: Sereno Sereno 20 64 1009 vento: Nord N 3.7
31 Agosto 2026 05:50 tempo osservato: Sereno Sereno 20 59 1009 vento: Nord N 5.5
31 Agosto 2026 05:20 tempo osservato: Sereno Sereno 21 60 1008 vento: Nord NO 7.4
31 Agosto 2026 04:50 tempo osservato: Sereno Sereno 21 60 1008 vento: Nord N/NO 9.3
31 Agosto 2026 04:20 tempo osservato: Sereno Sereno 22 53 1008 vento: Nord N 3.7
31 Agosto 2026 03:50 tempo osservato: Sereno Sereno 22 56 1008 vento: Nord N 3.7
31 Agosto 2026 03:20 tempo osservato: Sereno Sereno 21 60 1008 vento: Nord N 5.5
31 Agosto 2026 02:50 tempo osservato: Sereno Sereno 23 53 1007 vento: Nord N/NO 11.1
31 Agosto 2026 02:20 tempo osservato: Sereno Sereno 22 56 1007 vento: Nord O/NO 9.3
31 Agosto 2026 01:50 tempo osservato: Sereno Sereno 24 50 1007 vento: Nord NO 11.1
31 Agosto 2026 01:20 tempo osservato: Sereno Sereno 23 56 1007 vento: Nord NO 7.4
31 Agosto 2026 00:50 tempo osservato: Sereno Sereno 22 64 1007 vento: Nord O/SO 13
31 Agosto 2026 00:20 tempo osservato: Sereno Sereno 22 64 1007 vento: Nord O/SO 14.8
30 Agosto 2026 23:50 tempo osservato: Sereno Sereno 22 64 1007 vento: Nord O/SO 13
30 Agosto 2026 23:20 tempo osservato: Sereno Sereno 23 60 1007 vento: Nord O 16.7
30 Agosto 2026 22:50 tempo osservato: Sereno Sereno 24 57 1007 vento: Nord O 22.2
30 Agosto 2026 22:20 tempo osservato: Sereno Sereno 24 57 1007 vento: Nord O 25.9
30 Agosto 2026 21:50 tempo osservato: Sereno Sereno 25 50 1007 vento: Nord O/NO 29.6
30 Agosto 2026 21:20 tempo osservato: Sereno Sereno 25 53 1007 vento: Nord O 14.8
30 Agosto 2026 20:50 tempo osservato: Sereno Sereno 25 50 1007 vento: Nord O 20.3
30 Agosto 2026 20:20 tempo osservato: Sereno Sereno 26 47 1007 vento: Nord O/NO 22.2
30 Agosto 2026 19:50 tempo osservato: Sereno Sereno 26 47 1006 vento: Nord O 22.2
30 Agosto 2026 19:20 tempo osservato: Sereno Sereno 26 50 1006 vento: Nord O 16.7
30 Agosto 2026 18:50 tempo osservato: Molto Nuvoloso Molto Nuvoloso 27 44 1005 vento: Nord O 22.2
30 Agosto 2026 18:20 tempo osservato: Molto Nuvoloso Molto Nuvoloso 28 42 1005 vento: Nord O 25.9
30 Agosto 2026 17:50 tempo osservato: Molto Nuvoloso Molto Nuvoloso 29 37 1005 vento: Nord O 29.6
30 Agosto 2026 17:20 tempo osservato: Nuvoloso Nuvoloso 29 37 1005 vento: Nord O/SO 20.3
30 Agosto 2026 16:50 tempo osservato: Molto Nuvoloso Molto Nuvoloso 29 39 1005 vento: Nord O/SO 20.3
30 Agosto 2026 16:20 tempo osservato: Molto Nuvoloso Molto Nuvoloso 30 25 1005 vento: Nord O/NO 18.5
30 Agosto 2026 15:50 tempo osservato: Nuvoloso Nuvoloso 31 25 1005 vento: Nord N 9.3
30 Agosto 2026 15:20 tempo osservato: Nuvoloso Nuvoloso 31 23 1005 vento: Nord N 5.5
30 Agosto 2026 14:50 tempo osservato: Nuvoloso Nuvoloso 30 25 1005 vento: Nord O/NO 11.1
30 Agosto 2026 14:20 tempo osservato: Nuvoloso Nuvoloso 30 28 1005 vento: Nord O/NO 9.3
30 Agosto 2026 13:50 tempo osservato: Nuvoloso Nuvoloso 29 28 1005 vento: Nord O/NO 13
30 Agosto 2026 13:20 tempo osservato: Nuvoloso Nuvoloso 29 28 1006 vento: Nord O/NO 11.1
30 Agosto 2026 12:50 tempo osservato: Sereno Sereno 28 32 1006 vento: Nord N/NO 14.8
30 Agosto 2026 12:20 tempo osservato: Sereno Sereno 27 34 1006 vento: Nord NE 11.1
30 Agosto 2026 11:50 tempo osservato: Sereno Sereno 27 36 1006 vento: Nord N 13
30 Agosto 2026 11:20 tempo osservato: Sereno Sereno 27 39 1006 vento: Nord N 11.1
30 Agosto 2026 10:50 tempo osservato: Sereno Sereno 26 39 1007 vento: Nord N 11.1
30 Agosto 2026 10:20 tempo osservato: Sereno Sereno 26 41 1007 vento: Nord N 14.8
30 Agosto 2026 09:50 tempo osservato: Sereno Sereno 23 49 1007 vento: Nord N/NO 11.1
30 Agosto 2026 09:20 tempo osservato: Sereno Sereno 22 56 1007 vento: Nord N 11.1
30 Agosto 2026 08:50 tempo osservato: Sereno Sereno 19 72 1007 vento: Nord N 9.3